sensor_id;sensor_type;location;lat;lon;timestamp;pressure;altitude;pressure_sealevel;temperature
78225;BMP280;67498;53.650;10.090;2023-08-20T00:00:22;101969.44;;;19.01
78225;BMP280;67498;53.650;10.090;2023-08-20T00:02:49;101971.59;;;18.93
78225;BMP280;67498;53.650;10.090;2023-08-20T00:05:16;101981.03;;;18.94
78225;BMP280;67498;53.650;10.090;2023-08-20T00:07:42;101979.31;;;18.88
78225;BMP280;67498;53.650;10.090;2023-08-20T00:10:07;101982.94;;;18.81
78225;BMP280;67498;53.650;10.090;2023-08-20T00:12:33;101980.88;;;18.73
78225;BMP280;67498;53.650;10.090;2023-08-20T00:15:00;101993.59;;;18.78
78225;BMP280;67498;53.650;10.090;2023-08-20T00:17:36;102000.16;;;18.73
78225;BMP280;67498;53.650;10.090;2023-08-20T00:20:03;102000.78;;;18.64
78225;BMP280;67498;53.650;10.090;2023-08-20T00:22:38;102001.75;;;18.58
78225;BMP280;67498;53.650;10.090;2023-08-20T00:25:04;102010.00;;;18.60
78225;BMP280;67498;53.650;10.090;2023-08-20T00:27:30;102008.38;;;18.50
78225;BMP280;67498;53.650;10.090;2023-08-20T00:29:55;102017.78;;;18.51
78225;BMP280;67498;53.650;10.090;2023-08-20T00:32:21;102025.09;;;18.47
78225;BMP280;67498;53.650;10.090;2023-08-20T00:34:46;102031.63;;;18.42
78225;BMP280;67498;53.650;10.090;2023-08-20T00:37:11;102025.06;;;18.34
78225;BMP280;67498;53.650;10.090;2023-08-20T00:39:37;102025.78;;;18.34
78225;BMP280;67498;53.650;10.090;2023-08-20T00:42:03;102025.16;;;18.30
78225;BMP280;67498;53.650;10.090;2023-08-20T00:44:29;102026.81;;;18.24
78225;BMP280;67498;53.650;10.090;2023-08-20T00:46:55;102026.16;;;18.20
78225;BMP280;67498;53.650;10.090;2023-08-20T00:49:20;102010.81;;;18.15
78225;BMP280;67498;53.650;10.090;2023-08-20T00:51:46;102010.13;;;18.11
78225;BMP280;67498;53.650;10.090;2023-08-20T00:54:11;102025.59;;;18.12
78225;BMP280;67498;53.650;10.090;2023-08-20T00:56:37;102010.66;;;18.06
78225;BMP280;67498;53.650;10.090;2023-08-20T00:59:04;102002.81;;;18.02
78225;BMP280;67498;53.650;10.090;2023-08-20T01:01:30;102023.88;;;18.06
78225;BMP280;67498;53.650;10.090;2023-08-20T01:03:55;102020.59;;;18.02
78225;BMP280;67498;53.650;10.090;2023-08-20T01:09:12;102009.44;;;17.94
78225;BMP280;67498;53.650;10.090;2023-08-20T01:11:45;102004.78;;;17.85
78225;BMP280;67498;53.650;10.090;2023-08-20T01:14:16;102006.72;;;17.81
78225;BMP280;67498;53.650;10.090;2023-08-20T01:16:41;102004.94;;;17.78
78225;BMP280;67498;53.650;10.090;2023-08-20T01:19:10;102018.03;;;17.82
78225;BMP280;67498;53.650;10.090;2023-08-20T01:21:58;102005.31;;;17.77
78225;BMP280;67498;53.650;10.090;2023-08-20T01:29:55;102012.34;;;17.67
78225;BMP280;67498;53.650;10.090;2023-08-20T01:32:22;102005.44;;;17.57
78225;BMP280;67498;53.650;10.090;2023-08-20T01:34:49;102022.00;;;17.57
78225;BMP280;67498;53.650;10.090;2023-08-20T01:37:14;102013.53;;;17.50
78225;BMP280;67498;53.650;10.090;2023-08-20T01:39:39;102026.38;;;17.48
78225;BMP280;67498;53.650;10.090;2023-08-20T01:42:05;102016.56;;;17.48
78225;BMP280;67498;53.650;10.090;2023-08-20T01:44:31;102026.38;;;17.48
78225;BMP280;67498;53.650;10.090;2023-08-20T01:46:56;102030.16;;;17.47
78225;BMP280;67498;53.650;10.090;2023-08-20T01:49:21;102024.97;;;17.43
78225;BMP280;67498;53.650;10.090;2023-08-20T01:51:46;102019.53;;;17.34
78225;BMP280;67498;53.650;10.090;2023-08-20T01:54:12;102027.09;;;17.32
78225;BMP280;67498;53.650;10.090;2023-08-20T01:56:37;102017.47;;;17.25
78225;BMP280;67498;53.650;10.090;2023-08-20T01:59:02;102013.81;;;17.19
78225;BMP280;67498;53.650;10.090;2023-08-20T02:01:27;102024.00;;;17.21
78225;BMP280;67498;53.650;10.090;2023-08-20T02:03:53;102019.50;;;17.17
78225;BMP280;67498;53.650;10.090;2023-08-20T02:06:18;102014.78;;;17.09
78225;BMP280;67498;53.650;10.090;2023-08-20T02:08:44;102012.50;;;17.11
78225;BMP280;67498;53.650;10.090;2023-08-20T02:11:09;102010.75;;;17.04
78225;BMP280;67498;53.650;10.090;2023-08-20T02:13:34;102016.34;;;17.06
78225;BMP280;67498;53.650;10.090;2023-08-20T02:16:03;102020.84;;;17.06
78225;BMP280;67498;53.650;10.090;2023-08-20T02:18:30;102007.09;;;16.98
78225;BMP280;67498;53.650;10.090;2023-08-20T02:20:56;102016.91;;;16.98
78225;BMP280;67498;53.650;10.090;2023-08-20T02:23:21;102023.66;;;16.99
78225;BMP280;67498;53.650;10.090;2023-08-20T02:25:47;102010.69;;;16.88
78225;BMP280;67498;53.650;10.090;2023-08-20T02:28:12;102024.63;;;16.88
78225;BMP280;67498;53.650;10.090;2023-08-20T02:30:40;102015.22;;;16.87
78225;BMP280;67498;53.650;10.090;2023-08-20T02:33:06;102020.63;;;16.80
78225;BMP280;67498;53.650;10.090;2023-08-20T02:35:31;102032.66;;;16.81
78225;BMP280;67498;53.650;10.090;2023-08-20T02:37:56;102027.47;;;16.78
78225;BMP280;67498;53.650;10.090;2023-08-20T02:40:22;102027.53;;;16.74
78225;BMP280;67498;53.650;10.090;2023-08-20T02:42:47;102017.47;;;16.69
78225;BMP280;67498;53.650;10.090;2023-08-20T02:45:12;102027.28;;;16.69
78225;BMP280;67498;53.650;10.090;2023-08-20T02:47:38;102017.94;;;16.64
78225;BMP280;67498;53.650;10.090;2023-08-20T02:50:03;102020.22;;;16.62
78225;BMP280;67498;53.650;10.090;2023-08-20T02:52:29;102021.78;;;16.59
78225;BMP280;67498;53.650;10.090;2023-08-20T02:54:54;102002.72;;;16.52
78225;BMP280;67498;53.650;10.090;2023-08-20T02:57:19;102004.25;;;16.49
78225;BMP280;67498;53.650;10.090;2023-08-20T02:59:45;102008.00;;;16.52
78225;BMP280;67498;53.650;10.090;2023-08-20T03:02:11;102008.47;;;16.47
78225;BMP280;67498;53.650;10.090;2023-08-20T03:04:36;102004.41;;;16.42
78225;BMP280;67498;53.650;10.090;2023-08-20T03:07:01;102014.13;;;16.45
78225;BMP280;67498;53.650;10.090;2023-08-20T03:09:26;102009.31;;;16.40
78225;BMP280;67498;53.650;10.090;2023-08-20T03:11:52;102007.16;;;16.35
78225;BMP280;67498;53.650;10.090;2023-08-20T03:14:17;102006.88;;;16.29
78225;BMP280;67498;53.650;10.090;2023-08-20T03:16:42;102023.63;;;16.39
78225;BMP280;67498;53.650;10.090;2023-08-20T03:19:07;102035.34;;;16.38
78225;BMP280;67498;53.650;10.090;2023-08-20T03:21:33;102028.91;;;16.39
78225;BMP280;67498;53.650;10.090;2023-08-20T03:23:58;102029.00;;;16.35
78225;BMP280;67498;53.650;10.090;2023-08-20T03:26:23;102031.53;;;16.39
78225;BMP280;67498;53.650;10.090;2023-08-20T03:28:49;102030.13;;;16.34
78225;BMP280;67498;53.650;10.090;2023-08-20T03:31:14;102026.00;;;16.33
78225;BMP280;67498;53.650;10.090;2023-08-20T03:33:39;102037.25;;;16.37
78225;BMP280;67498;53.650;10.090;2023-08-20T03:36:05;102029.38;;;16.34
78225;BMP280;67498;53.650;10.090;2023-08-20T03:38:30;102027.91;;;16.33
78225;BMP280;67498;53.650;10.090;2023-08-20T03:40:55;102036.06;;;16.38
78225;BMP280;67498;53.650;10.090;2023-08-20T03:43:21;102040.59;;;16.38
78225;BMP280;67498;53.650;10.090;2023-08-20T03:45:50;102033.44;;;16.38
78225;BMP280;67498;53.650;10.090;2023-08-20T03:48:16;102035.38;;;16.34
78225;BMP280;67498;53.650;10.090;2023-08-20T03:50:41;102037.00;;;16.28
78225;BMP280;67498;53.650;10.090;2023-08-20T03:53:06;102043.38;;;16.31
78225;BMP280;67498;53.650;10.090;2023-08-20T03:55:32;102044.88;;;16.32
78225;BMP280;67498;53.650;10.090;2023-08-20T03:57:57;102048.66;;;16.31
78225;BMP280;67498;53.650;10.090;2023-08-20T04:00:22;102056.59;;;16.27
78225;BMP280;67498;53.650;10.090;2023-08-20T04:02:47;102068.03;;;16.21
78225;BMP280;67498;53.650;10.090;2023-08-20T04:05:13;102067.31;;;16.16
78225;BMP280;67498;53.650;10.090;2023-08-20T04:07:38;102072.66;;;16.13
78225;BMP280;67498;53.650;10.090;2023-08-20T04:10:04;102056.22;;;16.05
78225;BMP280;67498;53.650;10.090;2023-08-20T04:12:29;102061.50;;;16.05
78225;BMP280;67498;53.650;10.090;2023-08-20T04:14:54;102066.06;;;16.01
78225;BMP280;67498;53.650;10.090;2023-08-20T04:17:19;102070.19;;;16.02
78225;BMP280;67498;53.650;10.090;2023-08-20T04:19:45;102069.81;;;16.04
78225;BMP280;67498;53.650;10.090;2023-08-20T04:22:11;102060.47;;;15.99
78225;BMP280;67498;53.650;10.090;2023-08-20T04:24:36;102064.22;;;15.98
78225;BMP280;67498;53.650;10.090;2023-08-20T04:27:01;102062.75;;;15.97
78225;BMP280;67498;53.650;10.090;2023-08-20T04:29:27;102073.19;;;16.01
78225;BMP280;67498;53.650;10.090;2023-08-20T04:31:52;102068.38;;;15.99
78225;BMP280;67498;53.650;10.090;2023-08-20T04:34:17;102074.03;;;15.98
78225;BMP280;67498;53.650;10.090;2023-08-20T04:36:43;102077.72;;;16.04
78225;BMP280;67498;53.650;10.090;2023-08-20T04:39:08;102073.56;;;16.03
78225;BMP280;67498;53.650;10.090;2023-08-20T04:41:33;102066.84;;;15.98
78225;BMP280;67498;53.650;10.090;2023-08-20T04:43:58;102084.81;;;16.07
78225;BMP280;67498;53.650;10.090;2023-08-20T04:46:24;102078.44;;;16.04
78225;BMP280;67498;53.650;10.090;2023-08-20T04:48:49;102078.31;;;16.11
78225;BMP280;67498;53.650;10.090;2023-08-20T04:51:14;102081.31;;;16.13
78225;BMP280;67498;53.650;10.090;2023-08-20T04:53:40;102076.84;;;16.10
78225;BMP280;67498;53.650;10.090;2023-08-20T04:56:05;102075.28;;;16.13
78225;BMP280;67498;53.650;10.090;2023-08-20T04:58:30;102065.88;;;16.15
78225;BMP280;67498;53.650;10.090;2023-08-20T05:00:56;102069.53;;;16.22
78225;BMP280;67498;53.650;10.090;2023-08-20T05:03:21;102063.53;;;16.17
78225;BMP280;67498;53.650;10.090;2023-08-20T05:05:50;102066.16;;;16.21
78225;BMP280;67498;53.650;10.090;2023-08-20T05:08:15;102070.53;;;16.28
78225;BMP280;67498;53.650;10.090;2023-08-20T05:10:41;102062.63;;;16.28
78225;BMP280;67498;53.650;10.090;2023-08-20T05:13:06;102059.94;;;16.31
78225;BMP280;67498;53.650;10.090;2023-08-20T05:15:31;102061.31;;;16.39
78225;BMP280;67498;53.650;10.090;2023-08-20T05:17:56;102067.25;;;16.44
78225;BMP280;67498;53.650;10.090;2023-08-20T05:20:22;102069.13;;;16.47
78225;BMP280;67498;53.650;10.090;2023-08-20T05:22:47;102064.13;;;16.52
78225;BMP280;67498;53.650;10.090;2023-08-20T05:25:12;102072.63;;;16.60
78225;BMP280;67498;53.650;10.090;2023-08-20T05:27:38;102073.66;;;16.66
78225;BMP280;67498;53.650;10.090;2023-08-20T05:30:03;102064.97;;;16.65
78225;BMP280;67498;53.650;10.090;2023-08-20T05:32:29;102057.31;;;16.75
78225;BMP280;67498;53.650;10.090;2023-08-20T05:34:54;102051.56;;;16.80
78225;BMP280;67498;53.650;10.090;2023-08-20T05:37:19;102040.94;;;16.83
78225;BMP280;67498;53.650;10.090;2023-08-20T05:39:44;102039.31;;;16.89
78225;BMP280;67498;53.650;10.090;2023-08-20T05:42:10;102040.66;;;16.98
78225;BMP280;67498;53.650;10.090;2023-08-20T05:44:35;102038.53;;;17.09
78225;BMP280;67498;53.650;10.090;2023-08-20T05:47:00;102030.50;;;17.16
78225;BMP280;67498;53.650;10.090;2023-08-20T05:49:26;102041.56;;;17.43
78225;BMP280;67498;53.650;10.090;2023-08-20T05:51:52;102063.28;;;17.67
78225;BMP280;67498;53.650;10.090;2023-08-20T05:54:17;102072.13;;;17.77
78225;BMP280;67498;53.650;10.090;2023-08-20T05:56:42;102078.78;;;17.85
78225;BMP280;67498;53.650;10.090;2023-08-20T05:59:08;102076.75;;;17.89
78225;BMP280;67498;53.650;10.090;2023-08-20T06:01:33;102088.16;;;18.03
78225;BMP280;67498;53.650;10.090;2023-08-20T06:03:58;102096.31;;;18.08
78225;BMP280;67498;53.650;10.090;2023-08-20T06:06:25;102084.94;;;18.11
78225;BMP280;67498;53.650;10.090;2023-08-20T06:08:50;102088.47;;;18.21
78225;BMP280;67498;53.650;10.090;2023-08-20T06:11:16;102074.34;;;18.11
78225;BMP280;67498;53.650;10.090;2023-08-20T06:13:41;102076.91;;;18.15
78225;BMP280;67498;53.650;10.090;2023-08-20T06:16:07;102076.91;;;18.15
78225;BMP280;67498;53.650;10.090;2023-08-20T06:18:33;102091.94;;;18.18
78225;BMP280;67498;53.650;10.090;2023-08-20T06:20:58;102091.13;;;18.21
78225;BMP280;67498;53.650;10.090;2023-08-20T06:23:23;102101.69;;;18.21
78225;BMP280;67498;53.650;10.090;2023-08-20T06:25:50;102092.09;;;18.27
78225;BMP280;67498;53.650;10.090;2023-08-20T06:28:16;102093.09;;;18.33
78225;BMP280;67498;53.650;10.090;2023-08-20T06:30:42;102088.34;;;18.41
78225;BMP280;67498;53.650;10.090;2023-08-20T06:33:07;102091.53;;;18.49
78225;BMP280;67498;53.650;10.090;2023-08-20T06:35:34;102080.91;;;18.52
78225;BMP280;67498;53.650;10.090;2023-08-20T06:37:59;102078.13;;;18.56
78225;BMP280;67498;53.650;10.090;2023-08-20T06:40:24;102080.00;;;18.72
78225;BMP280;67498;53.650;10.090;2023-08-20T06:42:49;102086.56;;;18.80
78225;BMP280;67498;53.650;10.090;2023-08-20T06:45:15;102083.28;;;18.76
78225;BMP280;67498;53.650;10.090;2023-08-20T06:47:40;102092.09;;;18.85
78225;BMP280;67498;53.650;10.090;2023-08-20T06:50:05;102098.78;;;18.90
78225;BMP280;67498;53.650;10.090;2023-08-20T06:52:31;102106.09;;;18.99
78225;BMP280;67498;53.650;10.090;2023-08-20T06:54:56;102104.72;;;19.07
78225;BMP280;67498;53.650;10.090;2023-08-20T06:57:22;102102.22;;;19.16
78225;BMP280;67498;53.650;10.090;2023-08-20T06:59:47;102110.16;;;19.29
78225;BMP280;67498;53.650;10.090;2023-08-20T07:02:12;102106.34;;;19.42
78225;BMP280;67498;53.650;10.090;2023-08-20T07:04:37;102113.59;;;19.89
78225;BMP280;67498;53.650;10.090;2023-08-20T07:07:03;102119.69;;;20.12
78225;BMP280;67498;53.650;10.090;2023-08-20T07:09:30;102105.81;;;20.30
78225;BMP280;67498;53.650;10.090;2023-08-20T07:11:55;102114.09;;;20.53
78225;BMP280;67498;53.650;10.090;2023-08-20T07:14:20;102107.53;;;20.67
78225;BMP280;67498;53.650;10.090;2023-08-20T07:16:46;102112.75;;;20.71
78225;BMP280;67498;53.650;10.090;2023-08-20T07:19:11;102116.84;;;20.72
78225;BMP280;67498;53.650;10.090;2023-08-20T07:21:36;102125.94;;;20.84
78225;BMP280;67498;53.650;10.090;2023-08-20T07:24:01;102115.38;;;21.02
78225;BMP280;67498;53.650;10.090;2023-08-20T07:26:27;102128.63;;;21.24
78225;BMP280;67498;53.650;10.090;2023-08-20T07:28:52;102126.44;;;21.41
78225;BMP280;67498;53.650;10.090;2023-08-20T07:31:25;102113.34;;;21.65
78225;BMP280;67498;53.650;10.090;2023-08-20T07:33:52;102111.00;;;21.76
78225;BMP280;67498;53.650;10.090;2023-08-20T07:36:19;102107.47;;;21.88
78225;BMP280;67498;53.650;10.090;2023-08-20T07:38:44;102113.66;;;22.03
78225;BMP280;67498;53.650;10.090;2023-08-20T07:41:10;102111.41;;;22.20
78225;BMP280;67498;53.650;10.090;2023-08-20T07:43:37;102116.84;;;22.44
78225;BMP280;67498;53.650;10.090;2023-08-20T07:46:03;102119.88;;;22.79
78225;BMP280;67498;53.650;10.090;2023-08-20T07:48:28;102127.53;;;23.19
78225;BMP280;67498;53.650;10.090;2023-08-20T07:50:53;102127.16;;;23.89
78225;BMP280;67498;53.650;10.090;2023-08-20T07:53:19;102132.63;;;24.24
78225;BMP280;67498;53.650;10.090;2023-08-20T07:55:44;102129.31;;;24.15
78225;BMP280;67498;53.650;10.090;2023-08-20T07:58:09;102121.81;;;24.04
78225;BMP280;67498;53.650;10.090;2023-08-20T08:00:34;102130.41;;;24.23
78225;BMP280;67498;53.650;10.090;2023-08-20T08:03:00;102131.22;;;23.99
78225;BMP280;67498;53.650;10.090;2023-08-20T08:05:25;102129.81;;;23.74
78225;BMP280;67498;53.650;10.090;2023-08-20T08:07:51;102136.97;;;23.68
78225;BMP280;67498;53.650;10.090;2023-08-20T08:10:16;102142.13;;;23.72
78225;BMP280;67498;53.650;10.090;2023-08-20T08:12:41;102135.97;;;23.66
78225;BMP280;67498;53.650;10.090;2023-08-20T08:15:06;102139.16;;;23.55
78225;BMP280;67498;53.650;10.090;2023-08-20T08:17:32;102142.31;;;23.44
78225;BMP280;67498;53.650;10.090;2023-08-20T08:19:57;102143.63;;;23.49
78225;BMP280;67498;53.650;10.090;2023-08-20T08:22:23;102148.44;;;23.60
78225;BMP280;67498;53.650;10.090;2023-08-20T08:24:48;102143.13;;;23.60
78225;BMP280;67498;53.650;10.090;2023-08-20T08:27:14;102144.72;;;23.66
78225;BMP280;67498;53.650;10.090;2023-08-20T08:29:39;102148.00;;;23.61
78225;BMP280;67498;53.650;10.090;2023-08-20T08:32:04;102147.22;;;23.46
78225;BMP280;67498;53.650;10.090;2023-08-20T08:34:30;102145.81;;;23.36
78225;BMP280;67498;53.650;10.090;2023-08-20T08:36:55;102153.56;;;23.48
78225;BMP280;67498;53.650;10.090;2023-08-20T08:39:20;102164.19;;;23.58
78225;BMP280;67498;53.650;10.090;2023-08-20T08:41:49;102153.16;;;23.65
78225;BMP280;67498;53.650;10.090;2023-08-20T08:44:16;102155.75;;;23.74
78225;BMP280;67498;53.650;10.090;2023-08-20T08:46:41;102157.47;;;24.01
78225;BMP280;67498;53.650;10.090;2023-08-20T08:49:08;102150.97;;;24.17
78225;BMP280;67498;53.650;10.090;2023-08-20T08:51:34;102153.53;;;24.26
78225;BMP280;67498;53.650;10.090;2023-08-20T08:54:01;102156.63;;;24.39
78225;BMP280;67498;53.650;10.090;2023-08-20T08:56:27;102164.00;;;24.59
78225;BMP280;67498;53.650;10.090;2023-08-20T08:58:53;102157.38;;;24.69
78225;BMP280;67498;53.650;10.090;2023-08-20T09:01:19;102165.25;;;24.78
78225;BMP280;67498;53.650;10.090;2023-08-20T09:03:45;102149.56;;;24.86
78225;BMP280;67498;53.650;10.090;2023-08-20T09:06:11;102150.41;;;24.92
78225;BMP280;67498;53.650;10.090;2023-08-20T09:08:36;102153.53;;;24.91
78225;BMP280;67498;53.650;10.090;2023-08-20T09:11:02;102158.41;;;24.92
78225;BMP280;67498;53.650;10.090;2023-08-20T09:13:40;102168.50;;;25.03
78225;BMP280;67498;53.650;10.090;2023-08-20T09:16:08;102158.91;;;25.31
78225;BMP280;67498;53.650;10.090;2023-08-20T09:18:38;102152.09;;;25.77
78225;BMP280;67498;53.650;10.090;2023-08-20T09:21:08;102159.97;;;26.43
78225;BMP280;67498;53.650;10.090;2023-08-20T09:23:34;102156.84;;;26.93
78225;BMP280;67498;53.650;10.090;2023-08-20T09:26:02;102159.88;;;27.29
78225;BMP280;67498;53.650;10.090;2023-08-20T09:28:27;102173.59;;;27.53
78225;BMP280;67498;53.650;10.090;2023-08-20T09:30:56;102158.47;;;27.50
78225;BMP280;67498;53.650;10.090;2023-08-20T09:33:22;102169.69;;;27.65
78225;BMP280;67498;53.650;10.090;2023-08-20T09:35:51;102149.19;;;27.46
78225;BMP280;67498;53.650;10.090;2023-08-20T09:38:19;102156.94;;;27.27
78225;BMP280;67498;53.650;10.090;2023-08-20T09:40:50;102161.84;;;27.28
78225;BMP280;67498;53.650;10.090;2023-08-20T09:43:17;102164.75;;;27.19
78225;BMP280;67498;53.650;10.090;2023-08-20T09:45:43;102162.84;;;26.82
78225;BMP280;67498;53.650;10.090;2023-08-20T09:48:09;102157.19;;;26.69
78225;BMP280;67498;53.650;10.090;2023-08-20T09:50:36;102155.78;;;26.79
78225;BMP280;67498;53.650;10.090;2023-08-20T09:53:08;102151.69;;;26.90
78225;BMP280;67498;53.650;10.090;2023-08-20T09:55:38;102162.16;;;26.88
78225;BMP280;67498;53.650;10.090;2023-08-20T09:58:04;102152.81;;;26.72
78225;BMP280;67498;53.650;10.090;2023-08-20T10:00:31;102147.41;;;26.61
78225;BMP280;67498;53.650;10.090;2023-08-20T10:02:57;102148.31;;;26.52
78225;BMP280;67498;53.650;10.090;2023-08-20T10:05:23;102140.53;;;26.54
78225;BMP280;67498;53.650;10.090;2023-08-20T10:07:49;102145.41;;;26.55
78225;BMP280;67498;53.650;10.090;2023-08-20T10:10:14;102144.66;;;26.55
78225;BMP280;67498;53.650;10.090;2023-08-20T10:12:41;102145.97;;;26.71
78225;BMP280;67498;53.650;10.090;2023-08-20T10:15:10;102141.88;;;26.81
78225;BMP280;67498;53.650;10.090;2023-08-20T10:17:37;102133.28;;;26.66
78225;BMP280;67498;53.650;10.090;2023-08-20T10:20:03;102145.63;;;26.52
78225;BMP280;67498;53.650;10.090;2023-08-20T10:22:35;102136.56;;;26.44
78225;BMP280;67498;53.650;10.090;2023-08-20T10:25:05;102136.41;;;26.59
78225;BMP280;67498;53.650;10.090;2023-08-20T10:27:33;102131.09;;;26.64
78225;BMP280;67498;53.650;10.090;2023-08-20T10:29:59;102131.03;;;26.59
78225;BMP280;67498;53.650;10.090;2023-08-20T10:35:09;102129.31;;;26.55
78225;BMP280;67498;53.650;10.090;2023-08-20T10:37:34;102130.06;;;26.56
78225;BMP280;67498;53.650;10.090;2023-08-20T10:40:02;102135.13;;;26.48
78225;BMP280;67498;53.650;10.090;2023-08-20T10:42:29;102128.53;;;26.44
78225;BMP280;67498;53.650;10.090;2023-08-20T10:45:06;102128.81;;;26.51
78225;BMP280;67498;53.650;10.090;2023-08-20T10:50:08;102126.66;;;26.55
78225;BMP280;67498;53.650;10.090;2023-08-20T10:52:38;102124.44;;;26.54
78225;BMP280;67498;53.650;10.090;2023-08-20T10:55:03;102131.28;;;26.55
78225;BMP280;67498;53.650;10.090;2023-08-20T10:57:34;102134.56;;;26.33
78225;BMP280;67498;53.650;10.090;2023-08-20T11:00:02;102131.84;;;26.27
78225;BMP280;67498;53.650;10.090;2023-08-20T11:02:32;102133.22;;;26.17
78225;BMP280;67498;53.650;10.090;2023-08-20T11:04:58;102127.56;;;26.10
78225;BMP280;67498;53.650;10.090;2023-08-20T11:07:24;102131.66;;;26.05
78225;BMP280;67498;53.650;10.090;2023-08-20T11:09:50;102130.41;;;26.01
78225;BMP280;67498;53.650;10.090;2023-08-20T11:12:15;102134.09;;;26.03
78225;BMP280;67498;53.650;10.090;2023-08-20T11:14:41;102136.31;;;26.05
78225;BMP280;67498;53.650;10.090;2023-08-20T11:17:07;102137.72;;;26.00
78225;BMP280;67498;53.650;10.090;2023-08-20T11:19:33;102145.94;;;25.96
78225;BMP280;67498;53.650;10.090;2023-08-20T11:21:59;102139.66;;;25.99
78225;BMP280;67498;53.650;10.090;2023-08-20T11:24:28;102145.03;;;25.99
78225;BMP280;67498;53.650;10.090;2023-08-20T11:26:54;102146.38;;;25.89
78225;BMP280;67498;53.650;10.090;2023-08-20T11:29:20;102151.47;;;25.87
78225;BMP280;67498;53.650;10.090;2023-08-20T11:31:47;102148.13;;;25.92
78225;BMP280;67498;53.650;10.090;2023-08-20T11:34:12;102150.63;;;26.02
78225;BMP280;67498;53.650;10.090;2023-08-20T11:36:40;102152.72;;;26.18
78225;BMP280;67498;53.650;10.090;2023-08-20T11:39:06;102143.50;;;26.24
78225;BMP280;67498;53.650;10.090;2023-08-20T11:41:35;102149.69;;;26.42
78225;BMP280;67498;53.650;10.090;2023-08-20T11:44:01;102142.22;;;26.51
78225;BMP280;67498;53.650;10.090;2023-08-20T11:46:26;102142.56;;;26.70
78225;BMP280;67498;53.650;10.090;2023-08-20T11:49:10;102135.84;;;26.92
78225;BMP280;67498;53.650;10.090;2023-08-20T11:51:36;102150.56;;;27.13
78225;BMP280;67498;53.650;10.090;2023-08-20T11:54:03;102143.53;;;27.27
78225;BMP280;67498;53.650;10.090;2023-08-20T11:56:29;102141.13;;;27.46
78225;BMP280;67498;53.650;10.090;2023-08-20T11:58:59;102135.28;;;27.53
78225;BMP280;67498;53.650;10.090;2023-08-20T12:01:24;102136.75;;;27.65
78225;BMP280;67498;53.650;10.090;2023-08-20T12:03:49;102150.44;;;27.78
78225;BMP280;67498;53.650;10.090;2023-08-20T12:06:21;102133.56;;;27.78
78225;BMP280;67498;53.650;10.090;2023-08-20T12:08:53;102141.16;;;27.85
78225;BMP280;67498;53.650;10.090;2023-08-20T12:11:23;102141.66;;;27.89
78225;BMP280;67498;53.650;10.090;2023-08-20T12:13:49;102149.47;;;27.81
78225;BMP280;67498;53.650;10.090;2023-08-20T12:16:14;102141.41;;;27.81
78225;BMP280;67498;53.650;10.090;2023-08-20T12:18:39;102140.41;;;27.84
78225;BMP280;67498;53.650;10.090;2023-08-20T12:21:05;102144.13;;;27.92
78225;BMP280;67498;53.650;10.090;2023-08-20T12:23:30;102126.25;;;27.84
78225;BMP280;67498;53.650;10.090;2023-08-20T12:25:55;102139.22;;;27.80
78225;BMP280;67498;53.650;10.090;2023-08-20T12:28:21;102127.25;;;27.69
78225;BMP280;67498;53.650;10.090;2023-08-20T12:30:47;102130.41;;;27.51
78225;BMP280;67498;53.650;10.090;2023-08-20T12:33:12;102143.28;;;27.30
78225;BMP280;67498;53.650;10.090;2023-08-20T12:35:38;102136.34;;;27.01
78225;BMP280;67498;53.650;10.090;2023-08-20T12:38:03;102145.06;;;26.79
78225;BMP280;67498;53.650;10.090;2023-08-20T12:40:29;102139.84;;;26.59
78225;BMP280;67498;53.650;10.090;2023-08-20T12:42:54;102144.13;;;26.45
78225;BMP280;67498;53.650;10.090;2023-08-20T12:45:19;102131.63;;;26.31
78225;BMP280;67498;53.650;10.090;2023-08-20T12:47:45;102134.50;;;26.27
78225;BMP280;67498;53.650;10.090;2023-08-20T12:50:10;102131.63;;;26.31
78225;BMP280;67498;53.650;10.090;2023-08-20T12:52:36;102130.25;;;26.47
78225;BMP280;67498;53.650;10.090;2023-08-20T12:55:02;102120.00;;;26.45
78225;BMP280;67498;53.650;10.090;2023-08-20T12:57:28;102115.31;;;26.35
78225;BMP280;67498;53.650;10.090;2023-08-20T12:59:53;102125.56;;;26.36
78225;BMP280;67498;53.650;10.090;2023-08-20T13:02:19;102118.97;;;26.37
78225;BMP280;67498;53.650;10.090;2023-08-20T13:04:45;102111.91;;;26.34
78225;BMP280;67498;53.650;10.090;2023-08-20T13:07:11;102119.75;;;26.38
78225;BMP280;67498;53.650;10.090;2023-08-20T13:09:37;102122.88;;;26.36
78225;BMP280;67498;53.650;10.090;2023-08-20T13:12:02;102115.75;;;26.27
78225;BMP280;67498;53.650;10.090;2023-08-20T13:14:30;102106.22;;;26.21
78225;BMP280;67498;53.650;10.090;2023-08-20T13:16:56;102119.22;;;26.34
78225;BMP280;67498;53.650;10.090;2023-08-20T13:19:21;102118.09;;;26.51
78225;BMP280;67498;53.650;10.090;2023-08-20T13:21:47;102116.16;;;26.52
78225;BMP280;67498;53.650;10.090;2023-08-20T13:24:12;102118.34;;;26.48
78225;BMP280;67498;53.650;10.090;2023-08-20T13:26:38;102120.41;;;26.33
78225;BMP280;67498;53.650;10.090;2023-08-20T13:29:03;102122.50;;;26.17
78225;BMP280;67498;53.650;10.090;2023-08-20T13:31:28;102115.88;;;26.07
78225;BMP280;67498;53.650;10.090;2023-08-20T13:33:53;102113.38;;;26.04
78225;BMP280;67498;53.650;10.090;2023-08-20T13:36:19;102106.31;;;26.01
78225;BMP280;67498;53.650;10.090;2023-08-20T13:38:44;102116.06;;;26.04
78225;BMP280;67498;53.650;10.090;2023-08-20T13:41:09;102118.25;;;26.05
78225;BMP280;67498;53.650;10.090;2023-08-20T13:43:35;102112.47;;;26.12
78225;BMP280;67498;53.650;10.090;2023-08-20T13:46:00;102123.84;;;26.39
78225;BMP280;67498;53.650;10.090;2023-08-20T13:48:25;102128.25;;;26.42
78225;BMP280;67498;53.650;10.090;2023-08-20T13:50:51;102125.31;;;26.34